Main page
METAR-TAF:

METAR-TAF

Airports :

Athens, Greece

Athens International Airport

latitude: 37-56N, longitude: 023-56E, elevation: 94 m

Current weather observation

The report was made 31 minutes ago, at 08:20 UTC
Wind 6 kt from the East
Temperature 22°C
Humidity 33%
Pressure 1010 hPa
Visibility 10 km or more
Few clouds at a height of 2000 ft

METAR: LGAV 300820Z 08006KT 9999 FEW020 22/05 Q1010 NOSIG

Time: 11:51 (08:51 UTC)

Forecast

The report was made 3 hours and 51 minutes ago, at 05:00 UTC
Forecast valid from 30 at 06 UTC to 01 at 06 UTC
Wind 5 kt from variable directions
Visibility 10 km or more
Few clouds at a height of 2000 ft
Broken clouds at a height of 7000 ft
Becoming
from 30 at 09 UTC to 30 at 11 UTC
Wind 12 kt from the Northeast
Few clouds at a height of 2000 ft
Scattered clouds at a height of 7000 ft

TAF: LGAV 300500Z 3006/0106 VRB05KT 9999 FEW020 BKN070 BECMG 3009/3011 04012KT FEW020 SCT070

Weather observations and forecasts of more than 4000 airports (METAR and TAF reports).

The available stations are represented by yellow and red dots on the map.

Hover mouse over dot to see the name of the station.

Then click to see weather observations and forecasts.

To change the map : click on the green buttons with a black cross to zoom in, on the green button with a dash to zoom out, or on the green arrows for adjacent maps.


METAR-TAF: